Time;durP1;ratioP1;P1;durP2;ratioP2;P2;SDS_P1;SDS_P2;PMS_P1;PMS_P2;Temp;Humidity;BMP_temperature;BMP_pressure;BME280_temperature;BME280_humidity;BME280_pressure;Samples;Min_cycle;Max_cycle;Signal;HPM_P1;HPM_P2
2022/07/30 00:00:20;;;;;;;;;4.75;4.75;;;;;26.57;27.58;101349.00;5000290;28;45223;-55
2022/07/30 00:02:47;;;;;;;;;8.00;6.75;;;;;26.54;28.21;101354.63;5007438;28;46158;-55
2022/07/30 00:05:12;;;;;;;;;11.25;11.00;;;;;26.52;27.96;101355.72;4999420;28;45270;-55
2022/07/30 00:07:38;;;;;;;;;13.50;10.50;;;;;26.45;28.26;101344.50;5000251;28;45261;-55
2022/07/30 00:10:04;;;;;;;;;9.75;7.00;;;;;26.45;28.06;101363.34;4999973;28;45590;-54
2022/07/30 00:12:29;;;;;;;;;8.00;7.25;;;;;26.41;27.80;101362.75;5000020;28;45394;-53
2022/07/30 00:14:54;;;;;;;;;6.00;6.00;;;;;26.38;27.58;101368.34;5015158;28;45230;-52
2022/07/30 00:17:20;;;;;;;;;7.00;7.00;;;;;26.35;27.98;101365.00;5000015;28;45777;-54
2022/07/30 00:19:46;;;;;;;;;7.00;6.00;;;;;26.30;28.00;101362.63;4999621;28;45555;-54
2022/07/30 00:22:11;;;;;;;;;8.00;8.00;;;;;26.30;27.94;101373.41;4999880;28;45253;-54
2022/07/30 00:24:36;;;;;;;;;7.00;6.75;;;;;26.24;27.93;101366.63;4999692;28;45278;-54
2022/07/30 00:27:02;;;;;;;;;5.00;5.00;;;;;26.24;27.81;101369.31;5000220;28;45238;-54
2022/07/30 00:29:27;;;;;;;;;6.50;6.50;;;;;26.19;28.06;101365.22;4999946;28;45172;-52
2022/07/30 00:31:53;;;;;;;;;7.00;6.00;;;;;26.18;28.82;101372.44;4999580;28;46901;-54
2022/07/30 00:34:18;;;;;;;;;5.75;3.75;;;;;26.17;28.51;101368.03;4999646;28;45243;-53
2022/07/30 00:36:43;;;;;;;;;7.50;6.25;;;;;26.14;28.30;101376.34;4999982;28;45238;-55
2022/07/30 00:39:09;;;;;;;;;6.00;6.00;;;;;26.10;28.15;101364.91;4999512;28;51869;-55
2022/07/30 00:41:51;;;;;;;;;5.25;5.00;;;;;26.07;28.08;101361.56;4999679;28;47424;-54
2022/07/30 00:44:16;;;;;;;;;8.50;6.75;;;;;26.05;28.65;101359.00;4999774;28;45255;-55
2022/07/30 00:46:41;;;;;;;;;8.50;8.50;;;;;26.04;28.07;101357.22;4999517;28;45547;-55
2022/07/30 00:49:06;;;;;;;;;5.75;5.25;;;;;26.02;28.64;101358.31;4999346;28;45473;-55
2022/07/30 00:51:32;;;;;;;;;7.00;5.25;;;;;26.00;28.21;101349.47;5016734;28;45198;-55
2022/07/30 00:53:57;;;;;;;;;4.25;4.25;;;;;26.00;28.78;101349.47;5003912;28;45245;-55
2022/07/30 00:56:22;;;;;;;;;6.50;6.50;;;;;25.94;28.66;101346.22;4999672;28;45183;-55
2022/07/30 00:58:48;;;;;;;;;6.50;6.00;;;;;25.95;28.51;101342.56;4999559;28;49182;-54
2022/07/30 01:01:13;;;;;;;;;6.00;5.00;;;;;25.93;28.32;101341.81;5002275;28;45272;-55
2022/07/30 01:03:38;;;;;;;;;7.75;6.25;;;;;25.91;29.03;101343.78;5003514;28;47586;-55
2022/07/30 01:06:03;;;;;;;;;8.00;7.25;;;;;25.89;28.39;101345.69;4999623;28;45425;-55
2022/07/30 01:08:29;;;;;;;;;4.25;2.00;;;;;25.88;29.06;101346.66;4999309;28;45397;-54
2022/07/30 01:10:54;;;;;;;;;7.25;6.00;;;;;25.84;28.90;101333.53;4997972;28;48543;-57
2022/07/30 01:13:20;;;;;;;;;5.50;5.50;;;;;25.84;29.02;101345.16;4999406;28;45162;-55
2022/07/30 01:15:45;;;;;;;;;6.75;5.00;;;;;25.83;28.97;101337.19;4999418;28;45444;-56
2022/07/30 01:18:12;;;;;;;;;7.50;7.50;;;;;25.79;28.72;101341.94;5002314;28;45263;-55
2022/07/30 01:20:47;;;;;;;;;6.00;6.00;;;;;25.79;29.15;101350.00;5002470;28;45277;-57
2022/07/30 01:23:22;;;;;;;;;5.00;5.00;;;;;25.77;28.99;101341.16;5002394;28;45324;-56
2022/07/30 01:25:55;;;;;;;;;6.50;6.50;;;;;25.75;29.27;101343.13;5002689;28;45367;-57
2022/07/30 01:28:42;;;;;;;;;6.00;3.25;;;;;25.72;29.21;101336.13;5002451;28;45182;-54
2022/07/30 01:31:09;;;;;;;;;5.75;4.75;;;;;25.70;28.73;101335.34;5002167;28;46204;-55
2022/07/30 01:33:39;;;;;;;;;6.75;6.00;;;;;25.67;29.12;101340.94;5002118;28;45435;-54
2022/07/30 01:36:09;;;;;;;;;7.50;5.50;;;;;25.64;29.16;101338.47;5002398;28;45478;-55
2022/07/30 01:38:38;;;;;;;;;3.00;3.00;;;;;25.60;29.22;101345.03;5002261;28;45438;-54
2022/07/30 01:41:06;;;;;;;;;5.00;5.00;;;;;25.59;28.97;101348.69;5000901;28;46544;-56
2022/07/30 01:43:34;;;;;;;;;5.50;5.25;;;;;25.56;29.50;101344.38;5000987;28;45405;-54
2022/07/30 01:46:01;;;;;;;;;6.25;5.50;;;;;25.52;29.26;101341.97;5001436;28;45333;-55
2022/07/30 01:48:28;;;;;;;;;5.75;5.75;;;;;25.49;29.12;101348.44;5002085;28;45230;-54
2022/07/30 01:50:56;;;;;;;;;6.00;4.00;;;;;25.44;29.53;101347.88;5013687;28;45543;-55
2022/07/30 01:53:24;;;;;;;;;6.00;6.00;;;;;25.42;29.58;101339.94;5011355;28;45377;-55
2022/07/30 01:55:50;;;;;;;;;8.25;5.50;;;;;25.40;29.68;101343.69;5002036;28;45339;-54
2022/07/30 01:58:19;;;;;;;;;5.00;4.25;;;;;25.37;29.35;101338.50;5001998;28;45511;-55
2022/07/30 02:00:47;;;;;;;;;6.00;5.00;;;;;25.26;29.27;101326.63;5001786;28;46170;-53
2022/07/30 02:03:13;;;;;;;;;5.25;5.25;;;;;25.32;28.98;101344.19;5009586;28;45506;-54
2022/07/30 02:05:41;;;;;;;;;6.00;6.00;;;;;25.30;29.52;101340.72;5001866;28;45305;-54
2022/07/30 02:08:14;;;;;;;;;5.00;5.00;;;;;25.28;29.95;101346.22;5002001;28;45235;-53
2022/07/30 02:10:48;;;;;;;;;8.00;7.00;;;;;25.25;29.72;101348.25;5016891;28;47449;-54
2022/07/30 02:13:19;;;;;;;;;6.00;6.00;;;;;25.22;29.77;101346.63;5001626;28;45328;-54
2022/07/30 02:15:54;;;;;;;;;8.50;7.25;;;;;25.20;29.56;101351.22;5001778;28;45261;-53
2022/07/30 02:18:31;;;;;;;;;5.00;5.00;;;;;25.17;30.09;101351.44;5001360;28;45298;-51
2022/07/30 02:21:05;;;;;;;;;7.25;6.00;;;;;25.14;29.87;101344.44;5001328;28;47218;-54
2022/07/30 02:23:35;;;;;;;;;7.00;7.00;;;;;25.11;29.97;101347.31;5001476;28;45257;-53
2022/07/30 02:26:02;;;;;;;;;8.00;7.00;;;;;25.07;30.14;101343.13;5001598;28;45352;-51
2022/07/30 02:28:29;;;;;;;;;6.00;6.00;;;;;25.04;30.12;101339.75;5001173;28;45234;-51
2022/07/30 02:30:58;;;;;;;;;6.50;6.50;;;;;25.03;29.77;101344.28;5001040;28;46402;-51
2022/07/30 02:33:29;;;;;;;;;5.00;5.00;;;;;25.01;30.05;101339.97;5001172;28;45317;-53
2022/07/30 02:35:57;;;;;;;;;7.00;7.00;;;;;24.97;30.01;101333.94;5016552;28;45299;-53
2022/07/30 02:38:26;;;;;;;;;10.25;8.00;;;;;24.94;30.15;101334.13;5001523;28;45479;-53
2022/07/30 02:40:54;;;;;;;;;6.25;6.25;;;;;24.92;29.96;101334.22;5000797;28;46189;-54
2022/07/30 02:43:23;;;;;;;;;5.75;5.75;;;;;24.86;30.29;101329.25;5001317;28;45255;-52
2022/07/30 02:45:49;;;;;;;;;8.00;7.50;;;;;24.85;30.17;101332.06;4999749;28;45351;-53
2022/07/30 02:48:17;;;;;;;;;9.00;7.75;;;;;24.85;30.34;101332.91;5001329;28;45456;-53
2022/07/30 02:50:43;;;;;;;;;8.50;7.50;;;;;24.81;30.43;101337.63;5010742;28;46222;-50
2022/07/30 02:53:12;;;;;;;;;6.00;4.50;;;;;24.77;30.44;101330.72;5012017;28;45214;-51
2022/07/30 02:55:39;;;;;;;;;5.50;4.75;;;;;24.75;30.41;101337.16;5001190;28;45412;-53
2022/07/30 02:58:06;;;;;;;;;6.00;6.00;;;;;24.73;30.54;101337.25;5000983;28;45562;-54
2022/07/30 03:00:33;;;;;;;;;5.75;5.75;;;;;24.70;30.77;101336.59;5000774;28;46260;-54
2022/07/30 03:02:59;;;;;;;;;5.75;5.75;;;;;24.67;30.91;101335.81;5008408;28;45241;-53
2022/07/30 03:05:26;;;;;;;;;6.50;5.50;;;;;24.64;30.88;101344.09;5001021;28;45261;-53
2022/07/30 03:07:55;;;;;;;;;6.50;5.75;;;;;24.54;30.61;101326.81;5001129;28;45274;-53
2022/07/30 03:10:21;;;;;;;;;7.75;7.00;;;;;24.57;30.85;101334.66;4999470;28;47456;-52
2022/07/30 03:12:49;;;;;;;;;6.00;5.75;;;;;24.56;30.86;101337.47;5000863;28;45235;-49
2022/07/30 03:15:14;;;;;;;;;6.75;6.00;;;;;24.54;30.97;101334.88;4999605;28;45246;-53
2022/07/30 03:17:47;;;;;;;;;9.50;8.00;;;;;24.51;30.88;101345.78;5000572;28;45248;-54
2022/07/30 03:20:17;;;;;;;;;6.50;5.75;;;;;24.47;30.91;101342.44;5000384;28;47211;-53
2022/07/30 03:22:46;;;;;;;;;6.75;6.50;;;;;24.45;31.00;101341.69;5000565;28;45394;-52
2022/07/30 03:25:16;;;;;;;;;6.25;5.75;;;;;24.41;31.14;101339.28;5000658;28;45175;-52
2022/07/30 03:27:43;;;;;;;;;6.50;6.00;;;;;24.41;30.96;101336.59;5000607;28;45333;-51
2022/07/30 03:30:09;;;;;;;;;7.00;6.00;;;;;24.38;31.12;101342.16;5000419;28;45432;-52
2022/07/30 03:32:35;;;;;;;;;7.50;7.25;;;;;24.35;31.34;101332.47;5000268;28;45411;-53
2022/07/30 03:35:01;;;;;;;;;7.00;6.25;;;;;24.33;31.34;101331.72;5000563;28;45312;-54
2022/07/30 03:37:28;;;;;;;;;6.25;6.25;;;;;24.28;31.17;101325.78;5000434;28;45187;-53
2022/07/30 03:39:56;;;;;;;;;8.00;8.00;;;;;24.29;31.15;101327.50;4999647;28;46202;-53
2022/07/30 03:42:23;;;;;;;;;7.00;7.00;;;;;24.26;31.25;101336.59;5000093;28;45356;-53
2022/07/30 03:44:49;;;;;;;;;8.50;7.75;;;;;24.24;31.31;101333.16;5000718;28;45365;-52
2022/07/30 03:47:15;;;;;;;;;6.00;6.00;;;;;24.21;31.36;101327.97;5000182;28;45523;-52
2022/07/30 03:49:41;;;;;;;;;6.25;6.25;;;;;24.19;31.34;101332.59;5002416;28;46282;-53
2022/07/30 03:52:07;;;;;;;;;7.00;7.00;;;;;24.16;31.65;101333.66;5019731;28;45344;-53
2022/07/30 03:54:34;;;;;;;;;9.00;7.00;;;;;24.17;31.44;101345.25;5000650;28;45278;-54
2022/07/30 03:57:01;;;;;;;;;6.75;6.00;;;;;24.13;31.51;101344.56;5000182;28;45428;-52
2022/07/30 03:59:27;;;;;;;;;5.25;5.00;;;;;24.12;31.66;101342.81;5000277;28;45396;-52
2022/07/30 04:01:53;;;;;;;;;7.00;7.00;;;;;24.10;31.79;101346.56;5006252;28;45421;-49
2022/07/30 04:04:19;;;;;;;;;8.25;7.25;;;;;24.08;31.68;101353.88;5000199;28;45407;-50
2022/07/30 04:06:44;;;;;;;;;8.00;8.00;;;;;24.03;31.99;101354.16;5000032;28;45349;-53
2022/07/30 04:09:11;;;;;;;;;6.25;6.25;;;;;23.99;31.63;101357.97;5015591;28;46758;-52
2022/07/30 04:11:37;;;;;;;;;7.00;7.00;;;;;23.94;31.77;101355.56;5000022;28;45216;-53
2022/07/30 04:14:02;;;;;;;;;8.50;8.00;;;;;23.94;31.91;101346.66;5015456;28;45393;-53
2022/07/30 04:16:30;;;;;;;;;8.50;7.25;;;;;23.90;32.14;101351.31;4999807;28;45224;-53
2022/07/30 04:18:58;;;;;;;;;6.50;6.50;;;;;23.86;32.20;101344.41;4999858;28;45322;-54
2022/07/30 04:21:25;;;;;;;;;7.00;7.00;;;;;23.82;32.30;101345.53;4999631;28;45340;-52
2022/07/30 04:23:52;;;;;;;;;8.00;8.00;;;;;23.82;32.10;101342.88;5000169;28;45336;-53
2022/07/30 04:26:18;;;;;;;;;8.25;8.25;;;;;23.81;32.56;101354.53;4999828;28;45275;-53
2022/07/30 04:28:44;;;;;;;;;9.00;7.75;;;;;23.80;32.30;101352.84;4999741;28;46132;-50
2022/07/30 04:31:10;;;;;;;;;7.00;7.00;;;;;23.77;32.24;101353.00;4999449;28;45170;-52
2022/07/30 04:33:36;;;;;;;;;6.25;6.25;;;;;23.74;32.63;101356.75;4999726;28;45160;-56
2022/07/30 04:36:09;;;;;;;;;6.50;6.50;;;;;23.71;32.29;101365.00;4999576;28;45495;-51
2022/07/30 04:38:34;;;;;;;;;8.00;8.00;;;;;23.69;32.35;101372.25;4999480;28;46190;-53
2022/07/30 04:41:00;;;;;;;;;8.50;6.50;;;;;23.66;32.61;101376.00;5014605;28;45257;-51
2022/07/30 04:43:25;;;;;;;;;8.50;8.50;;;;;23.63;32.46;101372.63;4999882;28;45440;-52
2022/07/30 04:45:51;;;;;;;;;8.75;7.50;;;;;23.60;32.42;101365.63;4999609;28;45457;-51
2022/07/30 04:48:16;;;;;;;;;7.75;7.75;;;;;23.59;32.94;101371.94;4999368;28;46353;-52
2022/07/30 04:50:46;;;;;;;;;9.00;8.00;;;;;23.57;33.01;101372.97;5011509;28;45282;-50
2022/07/30 04:53:11;;;;;;;;;9.00;7.00;;;;;23.54;32.75;101366.84;5013483;28;45304;-52
2022/07/30 04:55:41;;;;;;;;;7.00;5.50;;;;;23.54;32.68;101366.84;5001536;28;45436;-52
2022/07/30 04:58:09;;;;;;;;;7.00;7.00;;;;;23.53;32.86;101362.44;5002886;28;46425;-52
2022/07/30 05:00:37;;;;;;;;;6.00;6.00;;;;;23.54;32.72;101363.31;5002696;28;45358;-52
2022/07/30 05:03:05;;;;;;;;;7.25;7.25;;;;;23.54;33.07;101360.63;5019107;28;45283;-51
2022/07/30 05:05:32;;;;;;;;;6.50;6.50;;;;;23.50;32.74;101361.75;5022495;28;45479;-51
2022/07/30 05:08:00;;;;;;;;;8.25;8.00;;;;;23.51;32.80;101363.50;5022546;28;46447;-50
2022/07/30 05:10:26;;;;;;;;;6.25;6.25;;;;;23.50;32.88;101362.63;5020965;28;45399;-50
2022/07/30 05:12:51;;;;;;;;;5.75;5.75;;;;;23.53;32.81;101374.97;5021129;28;45373;-52
2022/07/30 05:15:17;;;;;;;;;8.00;7.50;;;;;23.53;33.01;101378.53;5022311;28;45422;-52
2022/07/30 05:17:44;;;;;;;;;8.00;8.00;;;;;23.53;33.17;101375.88;5022331;28;46115;-52
2022/07/30 05:20:09;;;;;;;;;7.25;7.00;;;;;23.50;33.01;101373.34;5022042;28;45358;-52
2022/07/30 05:22:35;;;;;;;;;9.00;9.00;;;;;23.52;33.22;101379.50;5022339;28;45266;-52
2022/07/30 05:25:00;;;;;;;;;8.75;7.25;;;;;23.53;33.15;101388.38;5022097;28;45492;-53
2022/07/30 05:27:25;;;;;;;;;7.00;7.00;;;;;23.53;33.16;101388.38;5022352;28;45285;-49
2022/07/30 05:29:51;;;;;;;;;8.00;8.00;;;;;23.50;33.12;101381.38;5022039;28;45230;-51
2022/07/30 05:32:16;;;;;;;;;9.00;7.25;;;;;23.53;33.24;101388.38;5022186;28;45281;-49
2022/07/30 05:34:42;;;;;;;;;12.75;12.00;;;;;23.53;33.42;101383.03;5021874;28;45388;-51
2022/07/30 05:37:07;;;;;;;;;34.50;30.50;;;;;23.52;33.52;101386.66;5022234;28;45344;-51
2022/07/30 05:39:32;;;;;;;;;8.50;8.00;;;;;23.53;33.59;101386.59;5020784;28;45507;-51
2022/07/30 05:41:58;;;;;;;;;18.75;16.50;;;;;23.54;33.44;101392.81;5022212;28;45316;-49
2022/07/30 05:44:23;;;;;;;;;9.75;8.00;;;;;23.53;33.40;101385.72;5021952;28;45319;-48
2022/07/30 05:46:49;;;;;;;;;9.50;7.50;;;;;23.53;33.39;101393.75;5021780;28;46598;-51
2022/07/30 05:49:14;;;;;;;;;9.50;9.50;;;;;23.51;33.35;101393.84;5021699;28;45296;-52
2022/07/30 05:51:40;;;;;;;;;7.50;7.50;;;;;23.52;33.62;101389.34;5021303;28;45412;-52
2022/07/30 05:54:05;;;;;;;;;9.00;8.50;;;;;23.52;33.47;101403.63;5005244;28;45452;-49
2022/07/30 05:56:31;;;;;;;;;8.25;6.75;;;;;23.53;33.42;101396.44;5001797;28;46245;-51
2022/07/30 05:58:56;;;;;;;;;10.00;8.00;;;;;23.52;33.78;101394.69;5001845;28;45310;-52
2022/07/30 06:01:21;;;;;;;;;6.00;6.00;;;;;23.55;33.58;101405.28;5021086;28;45431;-50
2022/07/30 06:03:47;;;;;;;;;7.50;7.50;;;;;23.53;33.69;101405.38;5019263;28;45621;-50
2022/07/30 06:06:12;;;;;;;;;9.50;8.00;;;;;23.53;33.66;101399.13;5001548;28;52985;-49
2022/07/30 06:08:37;;;;;;;;;7.00;7.00;;;;;23.55;33.72;101407.94;5001934;28;45298;-50
2022/07/30 06:11:03;;;;;;;;;7.75;7.75;;;;;23.54;33.75;101401.69;5001880;28;45645;-48
2022/07/30 06:13:28;;;;;;;;;7.50;7.50;;;;;23.55;33.80;101405.28;5001896;28;45288;-52
2022/07/30 06:15:53;;;;;;;;;7.75;5.50;;;;;23.52;33.68;101400.94;5001467;28;45324;-49
2022/07/30 06:18:19;;;;;;;;;8.25;8.00;;;;;23.55;33.77;101399.91;5001408;28;45273;-48
2022/07/30 06:20:45;;;;;;;;;8.25;8.25;;;;;23.56;33.71;101398.06;5001752;28;45325;-52
2022/07/30 06:23:11;;;;;;;;;7.25;6.00;;;;;23.56;33.89;101400.75;5001432;28;45334;-50
2022/07/30 06:25:36;;;;;;;;;10.50;8.00;;;;;23.56;33.86;101400.75;5000862;28;45347;-52
2022/07/30 06:28:01;;;;;;;;;9.00;8.00;;;;;23.54;33.83;101395.50;5001484;28;45297;-51
2022/07/30 06:30:28;;;;;;;;;9.25;8.00;;;;;23.56;33.66;101398.97;5016756;28;45250;-52
2022/07/30 06:32:54;;;;;;;;;8.75;8.25;;;;;23.57;33.87;101403.38;5000983;28;45551;-51
2022/07/30 06:35:19;;;;;;;;;10.75;8.00;;;;;23.59;34.12;101403.28;5001340;28;45293;-53
2022/07/30 06:37:44;;;;;;;;;8.00;8.00;;;;;23.59;34.15;101405.97;4999971;28;45334;-53
2022/07/30 06:40:10;;;;;;;;;7.75;7.75;;;;;23.61;34.14;101415.63;5001771;28;45245;-50
2022/07/30 06:42:36;;;;;;;;;8.00;7.50;;;;;23.63;34.15;101416.41;4999710;28;45536;-52
2022/07/30 06:45:01;;;;;;;;;6.50;6.25;;;;;23.63;34.10;101416.41;5001314;28;46215;-50
2022/07/30 06:47:28;;;;;;;;;7.00;7.00;;;;;23.67;33.74;101425.13;5000982;28;45330;-51
2022/07/30 06:49:54;;;;;;;;;6.25;6.25;;;;;23.69;34.31;101421.41;5005073;28;45238;-50
2022/07/30 06:52:20;;;;;;;;;8.75;8.25;;;;;23.73;34.18;101423.91;5017616;28;45322;-51
2022/07/30 06:54:47;;;;;;;;;9.75;7.00;;;;;23.76;34.17;101426.41;5000605;28;45439;-48
2022/07/30 06:57:12;;;;;;;;;7.50;7.00;;;;;23.78;33.99;101428.03;5000990;28;45350;-51
2022/07/30 06:59:38;;;;;;;;;9.50;8.25;;;;;23.82;34.06;101436.78;5001073;28;45345;-52
2022/07/30 07:02:03;;;;;;;;;7.75;7.00;;;;;23.85;33.88;101436.63;5008324;28;45384;-52
2022/07/30 07:04:30;;;;;;;;;7.75;7.75;;;;;23.88;34.29;101433.72;5000908;28;46128;-53
2022/07/30 07:06:56;;;;;;;;;9.50;8.00;;;;;23.91;33.96;101441.66;5001103;28;45411;-53
2022/07/30 07:09:21;;;;;;;;;6.00;6.00;;;;;23.94;34.16;101437.91;5001296;28;45816;-53
2022/07/30 07:11:46;;;;;;;;;10.50;9.75;;;;;23.98;34.11;101448.34;4999519;28;45628;-52
2022/07/30 07:14:12;;;;;;;;;8.00;8.00;;;;;24.00;34.14;101451.81;4999912;28;49108;-49
2022/07/30 07:16:37;;;;;;;;;8.25;7.50;;;;;24.01;34.11;101442.81;5016049;28;45453;-51
2022/07/30 07:19:02;;;;;;;;;7.25;7.25;;;;;24.06;34.10;101449.72;5000761;28;45392;-52
2022/07/30 07:21:28;;;;;;;;;8.75;8.75;;;;;24.09;34.28;101447.72;5000689;28;45167;-53
2022/07/30 07:23:53;;;;;;;;;5.75;5.75;;;;;24.13;34.07;101449.25;5000629;28;45293;-53
2022/07/30 07:26:18;;;;;;;;;8.25;8.25;;;;;24.15;34.18;101447.34;5000786;28;45162;-52
2022/07/30 07:28:43;;;;;;;;;9.00;8.00;;;;;24.20;34.55;101451.56;5000834;28;45442;-53
2022/07/30 07:31:09;;;;;;;;;7.25;7.25;;;;;24.23;34.73;101454.94;5000455;28;45412;-53
2022/07/30 07:33:36;;;;;;;;;11.25;10.50;;;;;24.30;34.34;101452.75;5000272;28;47032;-53
2022/07/30 07:36:01;;;;;;;;;12.00;12.00;;;;;24.34;34.46;101455.16;5000634;28;45310;-51
2022/07/30 07:38:26;;;;;;;;;9.50;7.75;;;;;24.40;34.27;101451.25;5000745;28;45380;-52
2022/07/30 07:40:52;;;;;;;;;9.25;8.00;;;;;24.46;34.21;101455.34;5000318;28;45349;-53
2022/07/30 07:43:18;;;;;;;;;9.75;8.25;;;;;24.53;34.25;101458.50;4999096;28;46150;-53
2022/07/30 07:45:44;;;;;;;;;9.25;9.25;;;;;24.59;34.26;101452.75;4999124;28;45296;-52
2022/07/30 07:48:10;;;;;;;;;12.25;11.00;;;;;24.65;34.59;101455.09;5000373;28;45413;-53
2022/07/30 07:50:36;;;;;;;;;11.50;9.75;;;;;24.73;34.05;101471.63;5009655;28;45306;-53
2022/07/30 07:53:01;;;;;;;;;10.75;10.00;;;;;24.79;34.21;101460.50;5012213;28;45795;-52
2022/07/30 07:55:26;;;;;;;;;11.25;11.00;;;;;24.87;34.06;101454.63;5000125;28;45316;-53
2022/07/30 07:57:52;;;;;;;;;13.75;10.25;;;;;24.92;34.14;101460.56;5000239;28;45471;-53
2022/07/30 08:00:18;;;;;;;;;12.00;10.00;;;;;24.96;33.96;101450.50;5000150;28;45468;-52
2022/07/30 08:02:43;;;;;;;;;11.25;9.00;;;;;25.01;34.06;101451.06;5007187;28;45302;-52
2022/07/30 08:05:12;;;;;;;;;11.50;9.75;;;;;25.05;34.24;101441.81;5000037;28;45275;-53
2022/07/30 08:07:38;;;;;;;;;11.25;10.00;;;;;25.13;34.02;101446.69;5000445;28;45454;-50
2022/07/30 08:10:05;;;;;;;;;9.75;9.75;;;;;25.19;34.36;101440.06;5000033;28;45537;-52
2022/07/30 08:12:30;;;;;;;;;15.00;14.00;;;;;25.25;33.88;101445.06;5015153;28;46641;-53
2022/07/30 08:14:56;;;;;;;;;14.25;9.75;;;;;25.31;33.86;101441.97;4999894;28;45357;-53
2022/07/30 08:17:21;;;;;;;;;12.25;10.25;;;;;25.37;33.96;101440.72;5000362;28;45306;-51
2022/07/30 08:19:47;;;;;;;;;11.25;11.25;;;;;25.43;34.31;101437.63;4998498;28;45653;-53
2022/07/30 08:22:12;;;;;;;;;9.50;9.50;;;;;25.49;33.63;101434.53;4999926;28;45285;-52
2022/07/30 08:24:37;;;;;;;;;11.75;8.50;;;;;25.55;33.68;101439.50;4999910;28;45294;-52
2022/07/30 08:27:03;;;;;;;;;8.75;8.50;;;;;25.63;34.41;101441.69;5003998;28;45230;-53
2022/07/30 08:29:29;;;;;;;;;10.50;10.50;;;;;25.70;33.67;101444.81;5003378;28;45283;-53
2022/07/30 08:31:54;;;;;;;;;12.25;10.00;;;;;25.76;33.42;101444.38;5003311;28;46207;-50
2022/07/30 08:34:20;;;;;;;;;9.50;8.75;;;;;25.83;33.36;101444.88;5003078;28;45518;-53
2022/07/30 08:36:45;;;;;;;;;9.50;9.50;;;;;25.86;33.63;101441.94;5003164;28;45309;-52
2022/07/30 08:39:11;;;;;;;;;8.00;8.00;;;;;25.95;33.77;101452.97;5001774;28;45199;-53
2022/07/30 08:41:36;;;;;;;;;11.75;9.25;;;;;26.01;33.49;101446.31;5003084;28;45344;-50
2022/07/30 08:44:02;;;;;;;;;11.75;10.75;;;;;26.06;33.86;101454.06;5003328;28;45487;-53
2022/07/30 08:46:30;;;;;;;;;10.75;10.75;;;;;26.12;33.20;101464.44;5002568;28;45454;-52
2022/07/30 08:48:57;;;;;;;;;12.75;11.75;;;;;26.19;33.06;101462.16;5002945;28;45353;-53
2022/07/30 08:51:23;;;;;;;;;13.25;9.75;;;;;26.20;33.15;101448.63;5017653;28;45280;-52
2022/07/30 08:53:49;;;;;;;;;9.00;7.75;;;;;26.25;32.86;101449.16;5023661;28;45262;-54
2022/07/30 08:56:15;;;;;;;;;8.25;7.25;;;;;26.33;33.26;101459.41;5003253;28;45246;-53
2022/07/30 08:58:41;;;;;;;;;11.50;11.50;;;;;26.36;32.81;101461.84;5003127;28;45243;-49
2022/07/30 09:01:07;;;;;;;;;7.75;7.75;;;;;26.40;33.27;101455.31;5005158;28;45719;-54
2022/07/30 09:03:33;;;;;;;;;9.25;9.25;;;;;26.46;33.21;101463.94;5007479;28;45317;-53
2022/07/30 09:06:01;;;;;;;;;10.25;8.75;;;;;26.52;33.24;101460.81;5003094;28;45461;-51
2022/07/30 09:08:26;;;;;;;;;8.75;7.75;;;;;26.57;33.04;101458.63;5002845;28;45317;-50
2022/07/30 09:10:52;;;;;;;;;7.75;7.75;;;;;26.63;32.98;101457.31;5017111;28;46649;-52
2022/07/30 09:13:36;;;;;;;;;7.50;7.00;;;;;26.72;32.48;101459.38;5002924;28;45416;-51
2022/07/30 09:16:03;;;;;;;;;9.00;6.75;;;;;26.78;32.62;101464.38;5002705;28;45334;-53
2022/07/30 09:18:39;;;;;;;;;7.25;5.00;;;;;26.84;31.91;101463.94;5002313;28;45418;-53
2022/07/30 09:21:24;;;;;;;;;6.50;5.25;;;;;26.90;32.12;101466.16;5001165;28;47373;-53
2022/07/30 09:24:05;;;;;;;;;7.25;6.75;;;;;26.97;32.11;101469.28;5002563;28;45261;-54
2022/07/30 09:26:32;;;;;;;;;6.25;6.25;;;;;27.01;32.40;101468.09;5002571;28;45260;-54
2022/07/30 09:29:18;;;;;;;;;7.00;6.25;;;;;27.11;32.27;101462.91;5002436;28;45420;-53
2022/07/30 09:31:54;;;;;;;;;9.50;8.00;;;;;27.18;31.91;101466.88;5002165;28;45277;-52
2022/07/30 09:34:34;;;;;;;;;8.00;7.00;;;;;27.28;31.77;101472.44;5002210;28;45489;-52
2022/07/30 09:37:03;;;;;;;;;6.50;4.50;;;;;27.28;31.93;101455.41;5001508;28;45387;-50
2022/07/30 09:39:34;;;;;;;;;6.50;6.50;;;;;27.44;31.89;101468.66;5002204;28;45330;-52
2022/07/30 09:42:00;;;;;;;;;8.50;6.00;;;;;27.50;31.34;101465.50;5002009;28;46398;-52
2022/07/30 09:44:28;;;;;;;;;5.75;5.75;;;;;27.57;31.07;101469.44;5001630;28;45396;-52
2022/07/30 09:46:53;;;;;;;;;5.75;5.00;;;;;27.66;31.63;101467.88;5002312;28;45179;-52
2022/07/30 09:49:20;;;;;;;;;5.25;5.00;;;;;27.70;31.50;101462.16;5001734;28;45290;-52
2022/07/30 09:51:46;;;;;;;;;9.00;6.50;;;;;27.79;31.57;101468.69;5020811;28;46150;-54
2022/07/30 09:54:12;;;;;;;;;8.00;8.00;;;;;27.92;31.36;101473.16;5004264;28;45369;-52
2022/07/30 09:56:38;;;;;;;;;8.25;6.75;;;;;28.00;31.10;101470.72;5002280;28;45370;-52
2022/07/30 09:59:05;;;;;;;;;6.75;5.00;;;;;28.05;30.65;101468.56;5002060;28;45280;-52
2022/07/30 10:01:49;;;;;;;;;10.00;8.00;;;;;28.19;30.88;101465.66;5007094;28;45470;-53
2022/07/30 10:04:28;;;;;;;;;8.25;7.25;;;;;28.29;31.21;101473.91;5016944;28;45972;-54
2022/07/30 10:06:55;;;;;;;;;8.00;6.25;;;;;28.40;30.96;101473.03;5001956;28;45239;-54
2022/07/30 10:09:24;;;;;;;;;6.50;6.25;;;;;28.50;30.62;101465.94;5002133;28;45465;-53
2022/07/30 10:11:52;;;;;;;;;7.50;6.00;;;;;28.61;30.76;101470.50;5001622;28;46442;-55
2022/07/30 10:14:18;;;;;;;;;6.50;5.75;;;;;28.75;30.61;101469.41;5017084;28;45186;-53
2022/07/30 10:16:43;;;;;;;;;8.00;8.00;;;;;28.87;31.18;101470.28;5016874;28;45251;-54
2022/07/30 10:19:11;;;;;;;;;6.50;6.50;;;;;28.98;30.54;101467.56;5000422;28;45206;-53
2022/07/30 10:21:36;;;;;;;;;7.25;7.00;;;;;29.09;30.08;101465.84;5001525;28;45334;-54
2022/07/30 10:24:03;;;;;;;;;5.00;5.00;;;;;29.22;30.17;101471.09;5001894;28;45367;-54
2022/07/30 10:26:33;;;;;;;;;6.25;6.25;;;;;29.32;30.68;101480.19;5001650;28;45360;-53
2022/07/30 10:29:00;;;;;;;;;7.25;6.00;;;;;29.43;30.24;101463.94;5001508;28;45328;-53
2022/07/30 10:31:25;;;;;;;;;7.25;6.75;;;;;29.53;30.02;101461.31;5001302;28;45230;-53
2022/07/30 10:33:51;;;;;;;;;6.50;6.50;;;;;29.59;29.71;101463.50;5001259;28;45489;-50
2022/07/30 10:36:18;;;;;;;;;7.25;6.00;;;;;29.60;29.58;101461.69;5001658;28;45459;-53
2022/07/30 10:38:45;;;;;;;;;6.00;5.00;;;;;29.69;29.44;101458.19;5001530;28;45329;-51
2022/07/30 10:41:28;;;;;;;;;8.25;6.25;;;;;29.76;29.44;101445.84;4999440;28;46781;-53
2022/07/30 10:44:08;;;;;;;;;7.50;7.00;;;;;29.91;29.66;101450.97;5001344;28;45319;-54
2022/07/30 10:46:53;;;;;;;;;7.50;7.50;;;;;30.09;29.79;101449.38;5001341;28;45234;-54
2022/07/30 10:49:18;;;;;;;;;4.25;4.25;;;;;30.43;29.95;101443.72;5000902;28;45234;-53
2022/07/30 10:51:43;;;;;;;;;6.75;6.00;;;;;30.78;30.06;101437.06;5032027;28;46277;-52
2022/07/30 10:54:35;;;;;;;;;4.75;4.75;;;;;31.27;30.78;101439.06;5018574;28;45233;-52
2022/07/30 10:57:05;;;;;;;;;6.25;6.25;;;;;31.74;30.59;101438.41;5021174;28;45335;-53
2022/07/30 10:59:50;;;;;;;;;5.50;5.50;;;;;32.18;29.93;101444.19;5019959;28;45512;-54
2022/07/30 11:02:19;;;;;;;;;7.75;6.50;;;;;32.55;29.76;101447.97;5008544;28;45411;-51
2022/07/30 11:04:45;;;;;;;;;9.00;7.00;;;;;32.88;28.82;101451.13;5015917;28;45345;-52
2022/07/30 11:07:28;;;;;;;;;6.50;5.00;;;;;33.18;28.84;101440.94;5001166;28;45619;-53
2022/07/30 11:10:00;;;;;;;;;6.00;6.00;;;;;33.48;28.49;101426.09;5000872;28;45472;-54
2022/07/30 11:12:46;;;;;;;;;6.25;5.25;;;;;33.95;28.84;101435.03;5000279;28;46165;-54
2022/07/30 11:15:13;;;;;;;;;7.25;7.25;;;;;34.38;29.21;101427.84;5000715;28;46214;-54
2022/07/30 11:18:08;;;;;;;;;9.50;6.25;;;;;34.93;28.88;101429.31;5000524;28;45317;-57
2022/07/30 11:20:34;;;;;;;;;6.00;6.00;;;;;35.52;29.07;101433.84;5000836;28;45514;-57
2022/07/30 11:23:09;;;;;;;;;6.00;5.25;;;;;36.10;28.51;101429.25;5000323;28;46344;-57
2022/07/30 11:25:34;;;;;;;;;7.75;6.25;;;;;36.67;28.46;101435.59;5000636;28;45471;-58